Aviation Digital Data Service (ADDS)

Output produced by TAFs form (2358 UTC 18 February 2018)
found at http://www.aviationweather.gov/adds/tafs/
 
METAR text: RJAW 182300Z 09007KT 050V120 9999 SCT020 18/09 Q1022 RMK 3CU020 A3018
Conditions at: RJAW (IWOJIMA (JMSDF) , JP) observed 2300 UTC 18 February 2018
Temperature: 18.0°C (64°F)
Dewpoint: 9.0°C (48°F) [RH = 56%]
Pressure (altimeter): 30.18 inches Hg (1022.0 mb)
Winds: from the E (90 degrees) at 8 MPH (7 knots; 3.6 m/s)
Visibility: 6 or more miles (10+ km)
Ceiling: at least 12,000 feet AGL
Clouds: scattered clouds at 2000 feet AGL
Weather: no significant weather observed at this time